sensor_id;sensor_type;location;lat;lon;timestamp;P1;durP1;ratioP1;P2;durP2;ratioP2
76846;SDS011;65813;49.546;8.644;2022-12-18T05:15:33;20.80;;;9.02;;
76846;SDS011;65813;49.546;8.644;2022-12-18T05:19:33;27.13;;;11.88;;
76846;SDS011;65813;49.546;8.644;2022-12-18T05:27:34;28.33;;;11.60;;
76846;SDS011;65813;49.546;8.644;2022-12-18T05:35:35;19.40;;;9.73;;
76846;SDS011;65813;49.546;8.644;2022-12-18T05:43:36;20.95;;;9.30;;
76846;SDS011;65813;49.546;8.644;2022-12-18T05:47:38;29.73;;;11.63;;
76846;SDS011;65813;49.546;8.644;2022-12-18T05:55:39;22.52;;;10.10;;
76846;SDS011;65813;49.546;8.644;2022-12-18T05:59:40;20.05;;;9.00;;
76846;SDS011;65813;49.546;8.644;2022-12-18T06:07:41;20.02;;;9.20;;
76846;SDS011;65813;49.546;8.644;2022-12-18T06:15:41;23.63;;;9.45;;
76846;SDS011;65813;49.546;8.644;2022-12-18T06:23:43;17.98;;;8.80;;
76846;SDS011;65813;49.546;8.644;2022-12-18T06:31:43;18.92;;;8.90;;
76846;SDS011;65813;49.546;8.644;2022-12-18T06:35:44;25.77;;;11.00;;
76846;SDS011;65813;49.546;8.644;2022-12-18T06:39:44;23.87;;;10.90;;
76846;SDS011;65813;49.546;8.644;2022-12-18T06:47:45;18.00;;;7.77;;
76846;SDS011;65813;49.546;8.644;2022-12-18T06:55:45;21.80;;;8.17;;
76846;SDS011;65813;49.546;8.644;2022-12-18T07:03:46;29.77;;;12.27;;
76846;SDS011;65813;49.546;8.644;2022-12-18T07:07:51;17.98;;;8.25;;
76846;SDS011;65813;49.546;8.644;2022-12-18T07:15:51;23.37;;;8.70;;
76846;SDS011;65813;49.546;8.644;2022-12-18T07:23:52;22.20;;;8.05;;
76846;SDS011;65813;49.546;8.644;2022-12-18T07:31:52;21.08;;;8.80;;
76846;SDS011;65813;49.546;8.644;2022-12-18T07:39:53;18.80;;;8.88;;
76846;SDS011;65813;49.546;8.644;2022-12-18T07:47:53;14.30;;;5.80;;
76846;SDS011;65813;49.546;8.644;2022-12-18T07:55:56;17.67;;;7.75;;
76846;SDS011;65813;49.546;8.644;2022-12-18T07:59:57;25.33;;;9.77;;
76846;SDS011;65813;49.546;8.644;2022-12-18T08:07:58;17.23;;;8.82;;
76846;SDS011;65813;49.546;8.644;2022-12-18T08:11:58;22.13;;;8.47;;
76846;SDS011;65813;49.546;8.644;2022-12-18T08:20:00;21.40;;;12.38;;
76846;SDS011;65813;49.546;8.644;2022-12-18T08:28:01;20.20;;;9.05;;
76846;SDS011;65813;49.546;8.644;2022-12-18T08:32:04;24.17;;;10.02;;
76846;SDS011;65813;49.546;8.644;2022-12-18T08:40:07;24.15;;;10.10;;
76846;SDS011;65813;49.546;8.644;2022-12-18T08:44:08;41.92;;;14.82;;
76846;SDS011;65813;49.546;8.644;2022-12-18T08:48:27;23.17;;;11.07;;
76846;SDS011;65813;49.546;8.644;2022-12-18T08:56:28;25.25;;;12.23;;
76846;SDS011;65813;49.546;8.644;2022-12-18T09:00:32;24.77;;;10.65;;
76846;SDS011;65813;49.546;8.644;2022-12-18T09:04:32;23.80;;;9.77;;
76846;SDS011;65813;49.546;8.644;2022-12-18T09:12:36;23.55;;;12.25;;
76846;SDS011;65813;49.546;8.644;2022-12-18T09:20:37;20.95;;;9.02;;
76846;SDS011;65813;49.546;8.644;2022-12-18T09:28:38;20.02;;;10.10;;
76846;SDS011;65813;49.546;8.644;2022-12-18T09:36:38;28.45;;;12.70;;
76846;SDS011;65813;49.546;8.644;2022-12-18T09:45:07;27.73;;;12.23;;
76846;SDS011;65813;49.546;8.644;2022-12-18T09:49:15;27.92;;;11.68;;
76846;SDS011;65813;49.546;8.644;2022-12-18T09:53:19;26.02;;;12.02;;
76846;SDS011;65813;49.546;8.644;2022-12-18T09:57:24;31.05;;;12.85;;
76846;SDS011;65813;49.546;8.644;2022-12-18T10:05:34;27.58;;;12.65;;
76846;SDS011;65813;49.546;8.644;2022-12-18T10:19:04;26.90;;;11.30;;
76846;SDS011;65813;49.546;8.644;2022-12-18T10:23:28;28.70;;;11.75;;
76846;SDS011;65813;49.546;8.644;2022-12-18T10:27:38;28.92;;;11.80;;
76846;SDS011;65813;49.546;8.644;2022-12-18T10:31:39;28.50;;;11.73;;
76846;SDS011;65813;49.546;8.644;2022-12-18T10:35:40;27.88;;;11.77;;
76846;SDS011;65813;49.546;8.644;2022-12-18T10:39:42;29.67;;;12.65;;
76846;SDS011;65813;49.546;8.644;2022-12-18T10:43:42;34.03;;;13.20;;
76846;SDS011;65813;49.546;8.644;2022-12-18T10:47:51;31.67;;;13.40;;
76846;SDS011;65813;49.546;8.644;2022-12-18T10:52:03;32.53;;;11.88;;
76846;SDS011;65813;49.546;8.644;2022-12-18T10:56:14;34.35;;;13.95;;
76846;SDS011;65813;49.546;8.644;2022-12-18T11:04:30;30.60;;;12.20;;
76846;SDS011;65813;49.546;8.644;2022-12-18T11:08:31;26.10;;;11.98;;
76846;SDS011;65813;49.546;8.644;2022-12-18T11:12:32;30.40;;;12.52;;
76846;SDS011;65813;49.546;8.644;2022-12-18T11:16:33;27.97;;;12.23;;
76846;SDS011;65813;49.546;8.644;2022-12-18T11:20:37;44.33;;;17.75;;
76846;SDS011;65813;49.546;8.644;2022-12-18T11:24:38;38.75;;;16.88;;
76846;SDS011;65813;49.546;8.644;2022-12-18T11:28:52;59.35;;;24.80;;
76846;SDS011;65813;49.546;8.644;2022-12-18T11:33:14;43.63;;;18.08;;
76846;SDS011;65813;49.546;8.644;2022-12-18T11:37:18;47.70;;;20.55;;
76846;SDS011;65813;49.546;8.644;2022-12-18T11:41:26;39.00;;;15.68;;
76846;SDS011;65813;49.546;8.644;2022-12-18T11:54:13;31.40;;;12.07;;
76846;SDS011;65813;49.546;8.644;2022-12-18T12:02:41;29.70;;;12.18;;
76846;SDS011;65813;49.546;8.644;2022-12-18T12:19:46;29.65;;;11.93;;
76846;SDS011;65813;49.546;8.644;2022-12-18T12:32:37;37.33;;;15.48;;
76846;SDS011;65813;49.546;8.644;2022-12-18T12:41:04;33.75;;;14.93;;
76846;SDS011;65813;49.546;8.644;2022-12-18T12:45:31;32.13;;;13.60;;
76846;SDS011;65813;49.546;8.644;2022-12-18T12:49:48;35.25;;;14.50;;
76846;SDS011;65813;49.546;8.644;2022-12-18T12:53:50;32.85;;;13.73;;
76846;SDS011;65813;49.546;8.644;2022-12-18T12:58:11;41.20;;;16.60;;
76846;SDS011;65813;49.546;8.644;2022-12-18T13:07:02;30.58;;;14.00;;
76846;SDS011;65813;49.546;8.644;2022-12-18T13:11:25;34.55;;;14.98;;
76846;SDS011;65813;49.546;8.644;2022-12-18T13:16:05;35.33;;;13.38;;
76846;SDS011;65813;49.546;8.644;2022-12-18T13:20:08;37.17;;;15.85;;
76846;SDS011;65813;49.546;8.644;2022-12-18T13:24:26;34.38;;;15.40;;
76846;SDS011;65813;49.546;8.644;2022-12-18T13:32:33;39.97;;;16.10;;
76846;SDS011;65813;49.546;8.644;2022-12-18T13:36:33;37.47;;;15.23;;
76846;SDS011;65813;49.546;8.644;2022-12-18T13:44:49;35.72;;;13.95;;
76846;SDS011;65813;49.546;8.644;2022-12-18T13:49:51;35.37;;;14.67;;
76846;SDS011;65813;49.546;8.644;2022-12-18T13:58:03;34.20;;;12.80;;
76846;SDS011;65813;49.546;8.644;2022-12-18T14:02:18;32.53;;;14.10;;
76846;SDS011;65813;49.546;8.644;2022-12-18T14:06:21;28.38;;;13.38;;
76846;SDS011;65813;49.546;8.644;2022-12-18T14:10:21;37.30;;;14.57;;
76846;SDS011;65813;49.546;8.644;2022-12-18T14:14:22;35.80;;;14.55;;
76846;SDS011;65813;49.546;8.644;2022-12-18T14:18:34;35.47;;;14.83;;
76846;SDS011;65813;49.546;8.644;2022-12-18T14:22:59;30.17;;;13.60;;
76846;SDS011;65813;49.546;8.644;2022-12-18T14:27:22;33.97;;;15.00;;
76846;SDS011;65813;49.546;8.644;2022-12-18T14:31:24;32.40;;;13.57;;
76846;SDS011;65813;49.546;8.644;2022-12-18T14:35:29;34.08;;;13.45;;
76846;SDS011;65813;49.546;8.644;2022-12-18T14:39:30;31.83;;;13.48;;
76846;SDS011;65813;49.546;8.644;2022-12-18T14:43:39;27.37;;;12.37;;
76846;SDS011;65813;49.546;8.644;2022-12-18T14:47:47;34.83;;;13.88;;
76846;SDS011;65813;49.546;8.644;2022-12-18T14:51:48;33.17;;;14.20;;
76846;SDS011;65813;49.546;8.644;2022-12-18T14:55:51;32.13;;;14.38;;
76846;SDS011;65813;49.546;8.644;2022-12-18T14:59:51;32.25;;;13.10;;
76846;SDS011;65813;49.546;8.644;2022-12-18T15:03:53;33.08;;;13.77;;
76846;SDS011;65813;49.546;8.644;2022-12-18T15:07:55;31.83;;;13.07;;
76846;SDS011;65813;49.546;8.644;2022-12-18T15:11:58;35.88;;;12.82;;
76846;SDS011;65813;49.546;8.644;2022-12-18T15:16:01;38.05;;;16.42;;
76846;SDS011;65813;49.546;8.644;2022-12-18T15:20:08;34.05;;;13.77;;
76846;SDS011;65813;49.546;8.644;2022-12-18T15:24:24;32.83;;;12.85;;
76846;SDS011;65813;49.546;8.644;2022-12-18T15:28:43;37.15;;;13.77;;
76846;SDS011;65813;49.546;8.644;2022-12-18T15:37:23;28.20;;;13.80;;
76846;SDS011;65813;49.546;8.644;2022-12-18T15:41:23;34.63;;;13.77;;
76846;SDS011;65813;49.546;8.644;2022-12-18T15:45:24;31.58;;;13.02;;
76846;SDS011;65813;49.546;8.644;2022-12-18T15:49:24;33.20;;;13.33;;
76846;SDS011;65813;49.546;8.644;2022-12-18T15:53:26;31.52;;;14.70;;
76846;SDS011;65813;49.546;8.644;2022-12-18T15:57:30;33.92;;;15.05;;
76846;SDS011;65813;49.546;8.644;2022-12-18T16:01:30;29.33;;;13.23;;
76846;SDS011;65813;49.546;8.644;2022-12-18T16:05:31;34.45;;;13.07;;
76846;SDS011;65813;49.546;8.644;2022-12-18T16:09:31;32.33;;;14.48;;
76846;SDS011;65813;49.546;8.644;2022-12-18T16:13:32;29.67;;;12.93;;
76846;SDS011;65813;49.546;8.644;2022-12-18T16:17:32;31.10;;;12.80;;
76846;SDS011;65813;49.546;8.644;2022-12-18T16:21:33;36.00;;;14.80;;
76846;SDS011;65813;49.546;8.644;2022-12-18T16:25:33;38.03;;;15.17;;
76846;SDS011;65813;49.546;8.644;2022-12-18T16:29:33;31.58;;;14.45;;
76846;SDS011;65813;49.546;8.644;2022-12-18T16:33:34;29.07;;;12.53;;
76846;SDS011;65813;49.546;8.644;2022-12-18T16:37:34;29.53;;;14.23;;
76846;SDS011;65813;49.546;8.644;2022-12-18T16:41:35;27.00;;;12.90;;
76846;SDS011;65813;49.546;8.644;2022-12-18T16:45:35;31.00;;;13.38;;
76846;SDS011;65813;49.546;8.644;2022-12-18T16:49:36;33.73;;;13.10;;
76846;SDS011;65813;49.546;8.644;2022-12-18T16:53:36;27.73;;;13.05;;
76846;SDS011;65813;49.546;8.644;2022-12-18T16:57:36;35.43;;;15.43;;
76846;SDS011;65813;49.546;8.644;2022-12-18T17:01:37;39.57;;;15.53;;
76846;SDS011;65813;49.546;8.644;2022-12-18T17:05:38;37.70;;;14.48;;
76846;SDS011;65813;49.546;8.644;2022-12-18T17:09:38;36.40;;;15.60;;
76846;SDS011;65813;49.546;8.644;2022-12-18T17:13:39;40.10;;;14.88;;
76846;SDS011;65813;49.546;8.644;2022-12-18T17:17:39;34.05;;;13.40;;
76846;SDS011;65813;49.546;8.644;2022-12-18T17:21:40;41.47;;;15.50;;
76846;SDS011;65813;49.546;8.644;2022-12-18T17:25:40;29.98;;;13.95;;
76846;SDS011;65813;49.546;8.644;2022-12-18T17:29:41;30.50;;;13.30;;
76846;SDS011;65813;49.546;8.644;2022-12-18T17:33:42;39.90;;;16.05;;
76846;SDS011;65813;49.546;8.644;2022-12-18T17:37:42;32.47;;;12.60;;
76846;SDS011;65813;49.546;8.644;2022-12-18T17:41:43;35.70;;;14.85;;
76846;SDS011;65813;49.546;8.644;2022-12-18T17:45:43;38.95;;;16.75;;
76846;SDS011;65813;49.546;8.644;2022-12-18T17:49:44;33.73;;;13.67;;
76846;SDS011;65813;49.546;8.644;2022-12-18T17:53:44;36.17;;;14.65;;
76846;SDS011;65813;49.546;8.644;2022-12-18T17:57:45;32.42;;;13.80;;
76846;SDS011;65813;49.546;8.644;2022-12-18T18:01:45;33.13;;;13.87;;
76846;SDS011;65813;49.546;8.644;2022-12-18T18:05:45;35.97;;;15.00;;
76846;SDS011;65813;49.546;8.644;2022-12-18T18:09:46;38.57;;;15.80;;
76846;SDS011;65813;49.546;8.644;2022-12-18T18:13:46;36.77;;;14.33;;
76846;SDS011;65813;49.546;8.644;2022-12-18T18:18:01;35.28;;;15.48;;
76846;SDS011;65813;49.546;8.644;2022-12-18T18:22:02;36.42;;;15.55;;
76846;SDS011;65813;49.546;8.644;2022-12-18T18:26:03;34.75;;;15.82;;
76846;SDS011;65813;49.546;8.644;2022-12-18T18:30:05;38.33;;;16.10;;
76846;SDS011;65813;49.546;8.644;2022-12-18T18:34:06;36.65;;;15.25;;
76846;SDS011;65813;49.546;8.644;2022-12-18T18:38:06;42.80;;;16.27;;
76846;SDS011;65813;49.546;8.644;2022-12-18T18:42:07;38.25;;;15.85;;
76846;SDS011;65813;49.546;8.644;2022-12-18T18:46:08;31.95;;;13.38;;
76846;SDS011;65813;49.546;8.644;2022-12-18T18:50:11;34.45;;;14.15;;
76846;SDS011;65813;49.546;8.644;2022-12-18T18:54:11;36.83;;;15.30;;
76846;SDS011;65813;49.546;8.644;2022-12-18T18:58:12;35.50;;;15.45;;
76846;SDS011;65813;49.546;8.644;2022-12-18T19:02:13;35.95;;;17.25;;
76846;SDS011;65813;49.546;8.644;2022-12-18T19:06:24;33.38;;;13.77;;
76846;SDS011;65813;49.546;8.644;2022-12-18T19:10:26;32.72;;;14.65;;
76846;SDS011;65813;49.546;8.644;2022-12-18T19:14:26;30.43;;;13.07;;
76846;SDS011;65813;49.546;8.644;2022-12-18T19:18:27;39.10;;;16.13;;
76846;SDS011;65813;49.546;8.644;2022-12-18T19:22:27;38.10;;;16.38;;
76846;SDS011;65813;49.546;8.644;2022-12-18T19:26:27;38.33;;;15.40;;
76846;SDS011;65813;49.546;8.644;2022-12-18T19:30:28;38.00;;;16.02;;
76846;SDS011;65813;49.546;8.644;2022-12-18T19:34:28;49.87;;;20.57;;
76846;SDS011;65813;49.546;8.644;2022-12-18T19:38:29;43.93;;;17.50;;
76846;SDS011;65813;49.546;8.644;2022-12-18T19:42:29;41.13;;;18.17;;
76846;SDS011;65813;49.546;8.644;2022-12-18T19:46:29;41.55;;;19.55;;
76846;SDS011;65813;49.546;8.644;2022-12-18T19:50:30;43.27;;;18.37;;
76846;SDS011;65813;49.546;8.644;2022-12-18T19:54:30;40.03;;;17.50;;
76846;SDS011;65813;49.546;8.644;2022-12-18T19:58:30;35.13;;;15.70;;
76846;SDS011;65813;49.546;8.644;2022-12-18T20:02:31;37.63;;;16.37;;
76846;SDS011;65813;49.546;8.644;2022-12-18T20:06:44;35.50;;;15.63;;
76846;SDS011;65813;49.546;8.644;2022-12-18T20:10:48;41.42;;;17.42;;
76846;SDS011;65813;49.546;8.644;2022-12-18T20:14:49;38.13;;;16.70;;
76846;SDS011;65813;49.546;8.644;2022-12-18T20:18:49;46.73;;;18.00;;
76846;SDS011;65813;49.546;8.644;2022-12-18T20:22:49;38.40;;;15.40;;
76846;SDS011;65813;49.546;8.644;2022-12-18T20:26:50;43.53;;;20.13;;
76846;SDS011;65813;49.546;8.644;2022-12-18T20:30:50;36.80;;;16.03;;
76846;SDS011;65813;49.546;8.644;2022-12-18T20:34:58;42.20;;;17.88;;
76846;SDS011;65813;49.546;8.644;2022-12-18T20:38:58;34.40;;;15.70;;
76846;SDS011;65813;49.546;8.644;2022-12-18T20:42:59;36.17;;;16.70;;
76846;SDS011;65813;49.546;8.644;2022-12-18T20:46:59;38.33;;;17.13;;
76846;SDS011;65813;49.546;8.644;2022-12-18T20:51:03;40.05;;;16.42;;
76846;SDS011;65813;49.546;8.644;2022-12-18T20:55:06;41.70;;;16.05;;
76846;SDS011;65813;49.546;8.644;2022-12-18T20:59:06;41.90;;;16.35;;
76846;SDS011;65813;49.546;8.644;2022-12-18T21:03:08;40.30;;;16.92;;
76846;SDS011;65813;49.546;8.644;2022-12-18T21:07:11;39.45;;;15.93;;
76846;SDS011;65813;49.546;8.644;2022-12-18T21:11:16;38.87;;;17.17;;
76846;SDS011;65813;49.546;8.644;2022-12-18T21:15:35;40.63;;;19.27;;
76846;SDS011;65813;49.546;8.644;2022-12-18T21:19:35;45.53;;;18.00;;
76846;SDS011;65813;49.546;8.644;2022-12-18T21:23:36;37.33;;;16.05;;
76846;SDS011;65813;49.546;8.644;2022-12-18T21:27:36;40.60;;;16.07;;
76846;SDS011;65813;49.546;8.644;2022-12-18T21:31:37;41.60;;;18.63;;
76846;SDS011;65813;49.546;8.644;2022-12-18T21:35:38;45.38;;;18.17;;
76846;SDS011;65813;49.546;8.644;2022-12-18T21:39:38;41.33;;;17.80;;
76846;SDS011;65813;49.546;8.644;2022-12-18T21:43:39;42.77;;;17.63;;
76846;SDS011;65813;49.546;8.644;2022-12-18T21:51:58;34.40;;;17.60;;
76846;SDS011;65813;49.546;8.644;2022-12-18T21:55:59;40.28;;;19.98;;
76846;SDS011;65813;49.546;8.644;2022-12-18T22:00:00;42.13;;;18.27;;
76846;SDS011;65813;49.546;8.644;2022-12-18T22:04:01;39.22;;;19.00;;
76846;SDS011;65813;49.546;8.644;2022-12-18T22:08:02;47.67;;;19.77;;
76846;SDS011;65813;49.546;8.644;2022-12-18T22:12:02;40.05;;;16.80;;
